Time;durP1;ratioP1;P1;durP2;ratioP2;P2;SDS_P1;SDS_P2;PMS_P1;PMS_P2;Temp;Humidity;BMP_temperature;BMP_pressure;BME280_temperature;BME280_humidity;BME280_pressure;Samples;Min_cycle;Max_cycle;Signal;HPM_P1;HPM_P2
2021/10/06 00:02:14;;;;;;;1.33;1.33;;;;;;;21.54;80.35;97276.38;5022907;28;20222;-70
2021/10/06 00:04:40;;;;;;;1.47;1.37;;;;;;;21.56;80.41;97296.03;5033415;28;20209;-69
2021/10/06 00:07:07;;;;;;;1.20;1.20;;;;;;;21.54;80.55;97281.50;5043371;28;20198;-69
2021/10/06 00:09:33;;;;;;;3.67;1.60;;;;;;;21.39;80.35;97250.44;5021480;28;20467;-70
2021/10/06 00:12:00;;;;;;;1.53;1.43;;;;;;;21.28;80.40;97241.63;5019154;28;20253;-70
2021/10/06 00:14:26;;;;;;;1.30;1.20;;;;;;;21.55;80.72;97299.44;5019681;28;20237;-70
2021/10/06 00:16:53;;;;;;;1.30;1.20;;;;;;;21.20;80.77;97235.47;5000643;28;20692;-70
2021/10/06 00:19:20;;;;;;;1.50;1.40;;;;;;;21.48;80.48;97289.88;5022166;28;20194;-70
2021/10/06 00:21:47;;;;;;;1.40;1.30;;;;;;;21.23;80.38;97254.28;4999116;28;20260;-69
2021/10/06 00:24:13;;;;;;;1.43;1.33;;;;;;;21.43;80.50;97288.03;5003520;28;20248;-69
2021/10/06 00:26:40;;;;;;;1.20;1.20;;;;;;;21.29;80.84;97262.09;5037095;28;20202;-69
2021/10/06 00:29:08;;;;;;;1.50;1.40;;;;;;;21.57;80.55;97318.25;5015725;28;20240;-72
2021/10/06 00:31:34;;;;;;;1.70;1.60;;;;;;;21.36;80.44;97281.03;5001799;28;20272;-69
2021/10/06 00:34:01;;;;;;;1.60;1.50;;;;;;;21.44;80.47;97293.19;5017255;28;20205;-70
2021/10/06 00:36:28;;;;;;;1.40;1.30;;;;;;;21.06;80.04;97242.78;5022765;28;20243;-70
2021/10/06 00:38:54;;;;;;;1.30;1.20;;;;;;;21.30;80.46;97281.75;5038116;28;20300;-70
2021/10/06 00:41:21;;;;;;;1.50;1.40;;;;;;;21.32;80.73;97300.53;5020272;28;20253;-71
2021/10/06 00:43:47;;;;;;;1.50;1.40;;;;;;;21.34;80.55;97295.44;5005562;28;20570;-71
2021/10/06 00:46:14;;;;;;;1.20;1.20;;;;;;;21.56;80.87;97338.66;5038828;28;20197;-70
2021/10/06 00:48:41;;;;;;;1.53;1.43;;;;;;;21.21;80.43;97280.63;5017943;28;20214;-70
2021/10/06 00:51:07;;;;;;;1.30;1.20;;;;;;;21.59;80.47;97356.66;5013207;28;20315;-67
2021/10/06 00:53:34;;;;;;;1.40;1.30;;;;;;;21.42;80.52;97322.97;5045305;28;20235;-70
2021/10/06 00:56:01;;;;;;;1.30;1.20;;;;;;;21.03;80.60;97255.47;5012373;28;20663;-71
2021/10/06 00:58:28;;;;;;;1.40;1.30;;;;;;;21.21;80.34;97281.50;5045455;28;20197;-71
2021/10/06 01:00:54;;;;;;;1.27;1.20;;;;;;;20.69;80.18;97188.91;4995315;28;20252;-70
2021/10/06 01:03:21;;;;;;;1.30;1.20;;;;;;;21.46;80.13;97339.22;5010408;28;20644;-70
2021/10/06 01:05:49;;;;;;;1.47;1.37;;;;;;;21.53;80.24;97349.66;5017890;28;20280;-70
2021/10/06 01:08:15;;;;;;;1.27;1.23;;;;;;;21.65;80.18;97361.94;5009416;28;20236;-70
2021/10/06 01:10:42;;;;;;;1.30;1.20;;;;;;;21.55;80.26;97357.38;5019466;28;20237;-70
2021/10/06 01:13:11;;;;;;;1.47;1.37;;;;;;;21.46;80.04;97344.34;5006953;28;20232;-69
2021/10/06 01:15:37;;;;;;;1.30;1.23;;;;;;;21.41;79.81;97348.50;5002566;28;20713;-70
2021/10/06 01:18:04;;;;;;;1.60;1.50;;;;;;;21.63;80.00;97392.56;5005970;28;20644;-70
2021/10/06 01:20:30;;;;;;;1.30;1.20;;;;;;;21.47;79.59;97362.28;5034813;28;20222;-71
2021/10/06 01:22:57;;;;;;;1.40;1.30;;;;;;;21.67;80.48;97389.25;5002662;28;20197;-70
2021/10/06 01:25:24;;;;;;;2.60;1.50;;;;;;;21.33;79.78;97316.72;5016993;28;20206;-70
2021/10/06 01:27:50;;;;;;;1.63;1.33;;;;;;;21.34;80.46;97318.47;4997130;28;20232;-71
2021/10/06 01:30:17;;;;;;;1.30;1.20;;;;;;;21.15;79.99;97280.47;4998451;28;20275;-68
2021/10/06 01:32:44;;;;;;;2.70;1.30;;;;;;;21.62;80.01;97372.91;5044543;28;20648;-71
2021/10/06 01:35:12;;;;;;;1.17;1.17;;;;;;;21.52;79.78;97358.16;5000782;28;20241;-70
2021/10/06 01:37:40;;;;;;;1.23;1.13;;;;;;;20.97;79.72;97273.19;5006928;28;20211;-70
2021/10/06 01:40:09;;;;;;;2.00;1.13;;;;;;;21.31;79.64;97316.69;5000786;28;20202;-70
2021/10/06 01:42:36;;;;;;;1.30;1.20;;;;;;;21.40;79.55;97337.38;4983304;28;20229;-70
2021/10/06 01:45:03;;;;;;;1.40;1.30;;;;;;;21.28;79.81;97313.19;5023002;28;20221;-70
2021/10/06 01:47:29;;;;;;;1.10;1.10;;;;;;;21.74;79.65;97390.34;5028917;28;20220;-70
2021/10/06 01:49:56;;;;;;;1.50;1.40;;;;;;;20.32;79.13;97144.47;5036865;28;20216;-71
2021/10/06 01:52:23;;;;;;;1.40;1.30;;;;;;;21.59;79.79;97377.94;5016902;28;20576;-70
2021/10/06 01:54:52;;;;;;;1.20;1.10;;;;;;;21.54;79.60;97371.00;5024598;28;20666;-73
2021/10/06 01:57:19;;;;;;;1.60;1.20;;;;;;;21.52;79.44;97357.28;5021873;28;20289;-71
2021/10/06 01:59:46;;;;;;;1.27;1.20;;;;;;;20.84;79.29;97242.13;5002280;28;20229;-71
2021/10/06 02:02:13;;;;;;;1.10;1.10;;;;;;;21.32;79.78;97336.31;5018691;28;20726;-69
2021/10/06 02:04:39;;;;;;;1.37;1.30;;;;;;;21.77;79.55;97402.34;4992811;28;20285;-70
2021/10/06 02:07:06;;;;;;;1.40;1.30;;;;;;;21.77;79.64;97398.09;5026800;28;20224;-71
2021/10/06 02:09:33;;;;;;;1.43;1.33;;;;;;;21.78;79.48;97398.94;5023824;28;20312;-71
2021/10/06 02:11:59;;;;;;;1.10;1.10;;;;;;;21.41;79.31;97341.66;5034363;28;20632;-71
2021/10/06 02:14:26;;;;;;;1.30;1.20;;;;;;;21.77;79.54;97403.22;5016120;28;20240;-70
2021/10/06 02:16:52;;;;;;;1.40;1.30;;;;;;;21.69;79.13;97390.19;5017226;28;20201;-71
2021/10/06 02:19:19;;;;;;;1.40;1.30;;;;;;;21.51;79.25;97353.91;5019530;28;20198;-71
2021/10/06 02:21:46;;;;;;;1.10;1.10;;;;;;;21.79;79.37;97416.03;4997805;28;20229;-70
2021/10/06 02:24:12;;;;;;;1.20;1.20;;;;;;;20.93;79.51;97255.13;5042478;28;20196;-71
2021/10/06 02:26:39;;;;;;;1.30;1.20;;;;;;;21.53;79.16;97364.16;5020196;28;20233;-70
2021/10/06 02:29:05;;;;;;;1.40;1.30;;;;;;;21.36;79.12;97333.03;5000243;28;20779;-71
2021/10/06 02:31:32;;;;;;;1.30;1.20;;;;;;;21.45;79.47;97357.97;5034139;28;20737;-71
2021/10/06 02:33:58;;;;;;;1.27;1.17;;;;;;;21.51;79.60;97353.91;5016666;28;20292;-70
2021/10/06 02:36:25;;;;;;;1.10;1.10;;;;;;;21.48;79.37;97356.38;5018739;28;20293;-70
2021/10/06 02:38:51;;;;;;;1.10;1.10;;;;;;;21.79;79.23;97409.22;5002301;28;20284;-70
2021/10/06 02:41:18;;;;;;;1.40;1.30;;;;;;;20.83;79.32;97248.91;5034263;28;20218;-71
2021/10/06 02:43:45;;;;;;;1.40;1.30;;;;;;;21.80;79.22;97408.41;5017161;28;20583;-70
2021/10/06 02:46:11;;;;;;;1.10;1.10;;;;;;;21.45;79.34;97365.63;5023745;28;20224;-71
2021/10/06 02:48:38;;;;;;;1.10;1.10;;;;;;;21.80;79.14;97407.53;5018997;28;20256;-71
2021/10/06 02:51:05;;;;;;;1.53;1.23;;;;;;;21.36;79.55;97345.81;5018203;28;20264;-71
2021/10/06 02:53:31;;;;;;;1.27;1.20;;;;;;;21.61;79.07;97386.53;5015331;28;20728;-70
2021/10/06 02:55:58;;;;;;;1.30;1.20;;;;;;;21.81;79.19;97424.59;5039035;28;20625;-72
2021/10/06 02:58:24;;;;;;;1.03;1.03;;;;;;;21.01;79.12;97286.88;5021575;28;20293;-68
2021/10/06 03:00:51;;;;;;;1.30;1.20;;;;;;;21.73;79.09;97413.28;5040280;28;20659;-68
2021/10/06 03:03:18;;;;;;;1.67;1.20;;;;;;;21.31;79.18;97349.94;5008619;28;20193;-70
2021/10/06 03:05:44;;;;;;;1.10;1.10;;;;;;;21.80;79.14;97425.44;5040410;28;20631;-72
2021/10/06 03:08:11;;;;;;;1.30;1.23;;;;;;;21.81;79.04;97432.28;5035835;28;20236;-71
2021/10/06 03:10:37;;;;;;;1.27;1.20;;;;;;;21.82;79.13;97423.78;5020182;28;20276;-71
2021/10/06 03:13:04;;;;;;;1.40;1.30;;;;;;;21.71;79.24;97408.97;5041420;28;20236;-72
2021/10/06 03:15:31;;;;;;;1.00;1.00;;;;;;;21.81;79.34;97435.72;5035145;28;20248;-70
2021/10/06 03:17:57;;;;;;;1.13;1.13;;;;;;;21.74;78.81;97426.16;5036988;28;20229;-70
2021/10/06 03:20:24;;;;;;;1.20;1.20;;;;;;;21.65;79.05;97415.63;5018826;28;20640;-70
2021/10/06 03:22:50;;;;;;;1.60;1.50;;;;;;;21.73;79.17;97433.75;5017819;28;20734;-71
2021/10/06 03:25:17;;;;;;;1.00;1.00;;;;;;;21.80;79.04;97448.47;5019450;28;20288;-70
2021/10/06 03:27:43;;;;;;;1.10;1.10;;;;;;;21.63;79.03;97415.59;5022948;28;20265;-70
2021/10/06 03:30:10;;;;;;;1.20;1.13;;;;;;;21.81;79.24;97447.63;5017712;28;20288;-70
2021/10/06 03:32:37;;;;;;;1.30;1.20;;;;;;;21.76;79.03;97442.38;5020159;28;20206;-70
2021/10/06 03:35:05;;;;;;;1.27;1.20;;;;;;;21.43;78.79;97395.41;5020321;28;20233;-71
2021/10/06 03:37:31;;;;;;;1.30;1.20;;;;;;;21.62;79.19;97424.06;5003238;28;20283;-70
2021/10/06 03:39:58;;;;;;;1.00;1.00;;;;;;;21.76;78.99;97452.63;4999666;28;20226;-70
2021/10/06 03:42:24;;;;;;;1.10;1.10;;;;;;;21.67;78.89;97442.97;5035168;28;20265;-70
2021/10/06 03:44:51;;;;;;;1.23;1.20;;;;;;;21.75;79.37;97457.69;5023589;28;20229;-71
2021/10/06 03:47:17;;;;;;;1.63;1.10;;;;;;;21.56;79.72;97428.19;5036950;28;20288;-70
2021/10/06 03:49:44;;;;;;;1.00;1.00;;;;;;;20.61;79.64;97317.19;5020499;28;20256;-70
2021/10/06 03:52:11;;;;;;;1.20;1.10;;;;;;;21.69;79.25;97461.81;5030443;28;20562;-71
2021/10/06 03:54:37;;;;;;;1.00;1.00;;;;;;;21.68;79.80;97467.72;5035461;28;20287;-71
2021/10/06 03:57:04;;;;;;;1.33;1.27;;;;;;;21.52;79.63;97441.69;5044429;28;20239;-71
2021/10/06 03:59:30;;;;;;;1.87;1.40;;;;;;;21.66;79.63;97461.72;5024023;28;20288;-71
2021/10/06 04:01:57;;;;;;;1.37;1.27;;;;;;;21.66;79.81;97459.16;5042569;28;20275;-70
2021/10/06 04:04:23;;;;;;;1.10;1.10;;;;;;;21.59;79.99;97454.69;5036410;28;20304;-70
2021/10/06 04:06:50;;;;;;;1.10;1.10;;;;;;;21.63;79.94;97466.75;5020658;28;20198;-70
2021/10/06 04:09:16;;;;;;;1.00;1.00;;;;;;;21.40;79.82;97431.97;5043495;28;20360;-71
2021/10/06 04:11:43;;;;;;;1.30;1.20;;;;;;;21.67;79.94;97473.66;5000085;28;20257;-70
2021/10/06 04:14:10;;;;;;;1.10;1.10;;;;;;;21.67;79.38;97478.78;5009736;28;20236;-72
2021/10/06 04:16:36;;;;;;;1.63;1.07;;;;;;;21.68;79.89;97482.22;5036692;28;20244;-70
2021/10/06 04:19:03;;;;;;;1.17;1.17;;;;;;;21.60;79.64;97465.78;5013190;28;20197;-71
2021/10/06 04:21:29;;;;;;;1.23;1.13;;;;;;;21.66;79.48;97491.53;5129316;22;20317;-65
2021/10/06 04:23:56;;;;;;;1.20;1.10;;;;;;;21.69;80.14;97499.28;5018102;28;20228;-66
2021/10/06 04:26:23;;;;;;;1.30;1.20;;;;;;;21.68;79.71;97503.53;5031660;28;20240;-65
2021/10/06 04:28:49;;;;;;;1.10;1.10;;;;;;;21.69;79.51;97502.72;5047750;28;20292;-65
2021/10/06 04:31:19;;;;;;;1.00;1.00;;;;;;;21.70;80.17;97499.34;5042875;28;20304;-64
2021/10/06 04:33:46;;;;;;;1.33;1.23;;;;;;;21.60;79.79;97474.34;5018946;28;20233;-64
2021/10/06 04:36:13;;;;;;;1.20;1.10;;;;;;;21.70;79.59;97493.34;4997447;28;20209;-64
2021/10/06 04:38:39;;;;;;;1.37;1.27;;;;;;;21.73;79.37;97497.69;5019342;28;20229;-65
2021/10/06 04:41:06;;;;;;;1.17;1.17;;;;;;;21.73;79.68;97505.38;5041714;28;20296;-63
2021/10/06 04:43:33;;;;;;;1.10;1.10;;;;;;;21.73;79.70;97509.66;5018912;28;20669;-63
2021/10/06 04:46:00;;;;;;;1.03;1.03;;;;;;;21.56;79.45;97476.75;5037962;28;20232;-65
2021/10/06 04:48:26;;;;;;;1.20;1.10;;;;;;;21.75;79.44;97501.19;4998733;28;20282;-63
2021/10/06 04:50:53;;;;;;;1.10;1.10;;;;;;;21.72;79.76;97504.50;5002840;28;20639;-63
2021/10/06 04:53:19;;;;;;;1.20;1.10;;;;;;;21.64;79.56;97491.47;5015736;28;20193;-64
2021/10/06 04:55:47;;;;;;;1.23;1.10;;;;;;;21.77;79.26;97507.22;5021086;28;20232;-63
2021/10/06 04:58:14;;;;;;;1.40;1.30;;;;;;;21.77;77.90;97507.22;5018760;28;20237;-64
2021/10/06 05:00:40;;;;;;;1.40;1.30;;;;;;;21.69;76.17;97497.59;5037220;28;20244;-64
2021/10/06 05:03:11;;;;;;;2.73;1.40;;;;;;;21.75;74.57;97517.41;5001166;28;20225;-63
2021/10/06 05:05:39;;;;;;;1.80;1.50;;;;;;;21.73;72.54;97519.00;5014751;28;20682;-63
2021/10/06 05:08:06;;;;;;;2.23;1.70;;;;;;;21.73;71.48;97513.03;5019391;28;20278;-63
2021/10/06 05:10:33;;;;;;;2.03;1.50;;;;;;;21.70;70.48;97516.34;5020108;28;20602;-63
2021/10/06 05:12:59;;;;;;;4.13;1.80;;;;;;;21.69;69.84;97517.19;5020894;28;20241;-63
2021/10/06 05:15:26;;;;;;;3.93;1.60;;;;;;;21.62;69.45;97517.84;5019840;28;20202;-63
2021/10/06 05:17:53;;;;;;;5.50;1.70;;;;;;;21.50;69.08;97495.31;5027140;28;20640;-63
2021/10/06 05:20:19;;;;;;;4.77;1.73;;;;;;;21.63;68.35;97525.56;5022542;28;20248;-63
2021/10/06 05:22:46;;;;;;;2.80;1.60;;;;;;;21.62;68.28;97536.59;5003876;28;20260;-63
2021/10/06 05:25:12;;;;;;;1.70;1.60;;;;;;;21.42;67.80;97513.84;5037468;28;20225;-63
2021/10/06 05:27:39;;;;;;;2.93;2.43;;;;;;;21.59;68.19;97546.75;5025525;28;20268;-63
2021/10/06 05:30:07;;;;;;;4.77;3.90;;;;;;;21.54;68.01;97553.44;5038515;28;20324;-64
2021/10/06 05:32:33;;;;;;;4.93;3.23;;;;;;;21.57;67.53;97566.31;5003511;28;20839;-64
2021/10/06 05:35:00;;;;;;;5.20;3.20;;;;;;;21.57;67.84;97571.41;5039683;28;20643;-66
2021/10/06 05:37:27;;;;;;;2.57;2.37;;;;;;;21.57;67.59;97578.22;5017561;28;20229;-64
2021/10/06 05:39:53;;;;;;;3.43;2.33;;;;;;;21.58;67.55;97579.94;5015606;28;20271;-62
2021/10/06 05:42:20;;;;;;;6.27;2.60;;;;;;;21.50;67.30;97564.38;5017793;28;20256;-63
2021/10/06 05:44:47;;;;;;;2.80;2.10;;;;;;;21.57;67.26;97584.22;5015732;28;20222;-64
2021/10/06 05:47:13;;;;;;;3.50;2.33;;;;;;;21.57;67.64;97589.31;5015629;28;20226;-67
2021/10/06 05:49:40;;;;;;;4.87;2.50;;;;;;;21.58;68.21;97598.72;5034689;28;20205;-64
2021/10/06 05:52:06;;;;;;;6.10;2.17;;;;;;;21.58;69.06;97600.41;5034254;28;20255;-63
2021/10/06 05:54:34;;;;;;;5.77;2.40;;;;;;;21.58;69.88;97600.41;5034147;28;20728;-63
2021/10/06 05:57:01;;;;;;;14.87;2.60;;;;;;;21.53;70.58;97595.16;5039681;28;20243;-63
2021/10/06 05:59:27;;;;;;;12.23;2.70;;;;;;;21.59;70.26;97604.72;5022819;28;20312;-64
2021/10/06 06:01:54;;;;;;;9.13;2.63;;;;;;;21.55;71.35;97596.06;5033653;28;20255;-64
2021/10/06 06:04:21;;;;;;;6.17;2.50;;;;;;;21.44;71.47;97581.25;5021586;28;20201;-61
2021/10/06 06:06:48;;;;;;;9.33;2.90;;;;;;;21.60;71.58;97606.44;5017166;28;20225;-63
2021/10/06 06:09:17;;;;;;;7.80;3.07;;;;;;;21.63;72.26;97614.22;5019958;28;20285;-64
2021/10/06 06:11:43;;;;;;;10.97;3.60;;;;;;;21.64;72.27;97618.50;5045645;28;20221;-63
2021/10/06 06:14:10;;;;;;;3.40;2.77;;;;;;;21.65;71.03;97621.09;5036725;28;20201;-63
2021/10/06 06:16:36;;;;;;;6.27;2.80;;;;;;;21.66;69.68;97627.97;5035981;28;20243;-63
2021/10/06 06:19:03;;;;;;;7.03;3.10;;;;;;;21.67;69.07;97626.25;5037220;28;20292;-65
2021/10/06 06:21:29;;;;;;;4.67;2.47;;;;;;;21.68;69.97;97636.53;5033401;28;20761;-64
2021/10/06 06:23:56;;;;;;;3.63;2.30;;;;;;;21.61;70.57;97616.72;5013271;28;20221;-63
2021/10/06 06:26:23;;;;;;;2.43;2.00;;;;;;;21.52;71.15;97600.22;5022049;28;20228;-63
2021/10/06 06:28:49;;;;;;;3.77;2.03;;;;;;;21.71;71.75;97633.22;5003705;28;20665;-64
2021/10/06 06:31:17;;;;;;;11.23;2.67;;;;;;;21.70;71.73;97646.81;5024803;28;20266;-63
2021/10/06 06:33:44;;;;;;;5.33;2.20;;;;;;;21.68;72.20;97649.31;5024828;28;20266;-63
2021/10/06 06:36:11;;;;;;;2.37;1.90;;;;;;;21.63;72.61;97639.78;5040155;28;20233;-63
2021/10/06 06:38:38;;;;;;;6.10;2.30;;;;;;;21.67;72.54;97642.47;5024551;28;20200;-63
2021/10/06 06:41:04;;;;;;;5.60;2.00;;;;;;;21.67;72.94;97646.72;5046816;28;20766;-63
2021/10/06 06:43:31;;;;;;;4.23;2.07;;;;;;;21.58;73.06;97628.53;5023459;28;20291;-63
2021/10/06 06:45:57;;;;;;;2.93;2.03;;;;;;;21.65;73.01;97654.34;5020264;28;20225;-63
2021/10/06 06:48:24;;;;;;;5.47;1.90;;;;;;;21.64;70.52;97646.63;5043257;28;20229;-61
2021/10/06 06:50:54;;;;;;;3.50;2.17;;;;;;;21.57;70.62;97639.59;5022000;28;20332;-63
2021/10/06 06:53:21;;;;;;;5.50;2.00;;;;;;;21.61;70.57;97649.97;5001428;28;20289;-65
2021/10/06 06:55:48;;;;;;;4.23;2.30;;;;;;;21.61;70.65;97651.66;5003307;28;20525;-63
2021/10/06 06:58:15;;;;;;;3.80;2.00;;;;;;;21.59;70.83;97648.19;5018643;28;20225;-64
2021/10/06 07:00:41;;;;;;;2.63;2.00;;;;;;;21.59;71.77;97653.31;5018698;28;20225;-64
2021/10/06 07:03:08;;;;;;;3.07;1.73;;;;;;;21.57;71.78;97649.81;5014191;28;20202;-63
2021/10/06 07:05:34;;;;;;;2.53;1.80;;;;;;;21.60;71.96;97647.38;4978139;28;20289;-63
2021/10/06 07:08:02;;;;;;;1.70;1.60;;;;;;;21.59;72.51;97651.59;5032386;28;20730;-63
2021/10/06 07:10:30;;;;;;;4.90;1.80;;;;;;;21.58;72.96;97651.56;5034255;28;20225;-63
2021/10/06 07:12:56;;;;;;;4.50;1.87;;;;;;;21.62;73.23;97653.41;5023863;28;20221;-63
2021/10/06 07:15:23;;;;;;;4.43;1.87;;;;;;;21.63;73.28;97662.81;5035993;28;20634;-62
2021/10/06 07:17:50;;;;;;;3.03;2.20;;;;;;;21.63;73.86;97661.13;5037451;28;20201;-65
2021/10/06 07:20:16;;;;;;;1.80;1.40;;;;;;;21.65;73.77;97664.56;5017653;28;20760;-66
2021/10/06 07:22:47;;;;;;;2.33;1.70;;;;;;;21.65;73.71;97666.28;5020671;28;20320;-64
2021/10/06 07:25:14;;;;;;;7.30;1.80;;;;;;;21.66;73.64;97678.25;5018612;28;20198;-66
2021/10/06 07:27:41;;;;;;;3.83;1.80;;;;;;;21.64;73.73;97672.19;5016027;28;20248;-66
2021/10/06 07:30:08;;;;;;;3.33;1.60;;;;;;;21.15;73.80;97592.25;5041144;28;20625;-63
2021/10/06 07:32:35;;;;;;;6.83;1.97;;;;;;;21.49;74.12;97652.16;5033079;28;20244;-64
2021/10/06 07:35:02;;;;;;;3.90;2.07;;;;;;;21.65;73.93;97677.38;4999023;28;20216;-63
2021/10/06 07:37:29;;;;;;;3.87;1.97;;;;;;;21.65;74.23;97679.06;5036598;28;20228;-64
2021/10/06 07:39:56;;;;;;;2.53;1.63;;;;;;;21.70;74.39;97696.28;5021793;28;20582;-64
2021/10/06 07:42:22;;;;;;;4.70;1.70;;;;;;;21.71;74.18;97698.03;5041099;28;20241;-63
2021/10/06 07:44:49;;;;;;;2.10;1.90;;;;;;;21.69;74.31;97692.00;5020619;28;20630;-62
2021/10/06 07:47:15;;;;;;;2.13;1.63;;;;;;;21.72;74.28;97696.34;5013514;28;20650;-63
2021/10/06 07:49:42;;;;;;;3.10;1.67;;;;;;;21.69;74.53;97697.13;5038475;28;20292;-64
2021/10/06 07:52:10;;;;;;;4.37;1.70;;;;;;;21.73;74.48;97695.50;4996257;28;20762;-63
2021/10/06 07:54:38;;;;;;;4.10;1.50;;;;;;;21.73;74.43;97701.50;5037054;28;20248;-63
2021/10/06 07:57:04;;;;;;;2.10;1.50;;;;;;;21.72;74.39;97709.13;5040287;28;20233;-63
2021/10/06 07:59:31;;;;;;;3.30;1.90;;;;;;;21.70;74.47;97705.66;5014650;28;20198;-64
2021/10/06 08:01:57;;;;;;;2.43;1.63;;;;;;;21.70;74.68;97703.09;5015348;28;20302;-62
2021/10/06 08:04:24;;;;;;;2.40;1.53;;;;;;;21.69;74.65;97703.91;5019632;28;20621;-62
2021/10/06 08:06:51;;;;;;;1.50;1.40;;;;;;;21.64;74.92;97698.66;5017822;28;20204;-63
2021/10/06 08:09:18;;;;;;;6.10;1.50;;;;;;;21.56;74.83;97689.88;5013418;28;20715;-64
2021/10/06 08:11:44;;;;;;;3.40;1.80;;;;;;;21.24;74.81;97641.09;4998503;28;20249;-62
2021/10/06 08:14:11;;;;;;;2.70;1.90;;;;;;;21.62;74.60;97713.06;5032116;28;20635;-63
2021/10/06 08:16:37;;;;;;;2.83;1.70;;;;;;;21.67;75.10;97713.22;5004755;28;20235;-61
2021/10/06 08:19:05;;;;;;;2.83;1.70;;;;;;;21.65;75.04;97720.84;5035127;28;20232;-65
2021/10/06 08:21:31;;;;;;;3.17;1.70;;;;;;;21.65;75.33;97723.41;5037751;28;20307;-63
2021/10/06 08:23:58;;;;;;;2.50;1.77;;;;;;;21.42;75.50;97680.03;5017262;28;20201;-63
2021/10/06 08:26:24;;;;;;;2.13;1.63;;;;;;;21.65;75.30;97723.41;5014613;28;20202;-63
2021/10/06 08:28:51;;;;;;;3.73;1.80;;;;;;;21.61;75.22;97713.91;5016169;28;20228;-63
2021/10/06 08:31:19;;;;;;;2.73;1.80;;;;;;;21.33;75.49;97678.06;5017020;28;20256;-63
2021/10/06 08:33:46;;;;;;;3.07;1.90;;;;;;;21.66;75.36;97731.97;4996785;28;20267;-63
2021/10/06 08:36:13;;;;;;;1.90;1.70;;;;;;;21.53;75.39;97709.38;5034262;28;20293;-64
2021/10/06 08:38:39;;;;;;;2.70;1.97;;;;;;;21.61;75.30;97723.25;5003988;28;20713;-63
2021/10/06 08:41:06;;;;;;;2.70;1.60;;;;;;;21.58;75.34;97720.59;5021817;28;20216;-63
2021/10/06 08:43:33;;;;;;;1.97;1.70;;;;;;;20.86;75.52;97604.03;5015471;28;20264;-63
2021/10/06 08:45:59;;;;;;;1.77;1.67;;;;;;;21.22;75.42;97666.59;5038187;28;20228;-63
2021/10/06 08:48:26;;;;;;;2.40;1.90;;;;;;;21.69;75.53;97752.53;5034181;28;20255;-64
2021/10/06 08:50:53;;;;;;;1.83;1.67;;;;;;;21.67;75.33;97743.91;5035204;28;20784;-63
2021/10/06 08:53:39;;;;;;;3.53;1.90;;;;;;;21.69;75.88;97738.06;5022710;28;20201;-63
2021/10/06 08:56:06;;;;;;;3.43;1.87;;;;;;;21.70;75.60;97749.13;5017392;28;20862;-63
2021/10/06 08:58:32;;;;;;;4.37;1.70;;;;;;;21.71;75.46;97750.88;5032439;28;20209;-63
2021/10/06 09:00:59;;;;;;;2.83;1.57;;;;;;;21.62;75.63;97733.53;5033712;28;20225;-63
2021/10/06 09:03:31;;;;;;;2.43;1.60;;;;;;;21.71;75.71;97759.41;4992398;28;20201;-63
2021/10/06 09:06:01;;;;;;;2.47;1.80;;;;;;;21.68;75.66;97750.78;5029535;28;20622;-63
2021/10/06 09:08:29;;;;;;;2.67;1.90;;;;;;;21.52;75.49;97722.97;5032707;28;20229;-63
2021/10/06 09:10:56;;;;;;;1.90;1.70;;;;;;;21.71;75.60;97763.69;5015391;28;20634;-63
2021/10/06 09:13:27;;;;;;;2.00;1.80;;;;;;;21.75;75.48;97764.66;5005492;28;20236;-63
2021/10/06 09:15:54;;;;;;;3.17;1.90;;;;;;;21.75;75.74;97767.22;5033432;28;20247;-63
2021/10/06 09:18:22;;;;;;;1.87;1.50;;;;;;;21.69;75.87;97767.88;5032709;28;20197;-63
2021/10/06 09:20:48;;;;;;;1.93;1.60;;;;;;;21.55;75.67;97743.53;5002133;28;20202;-62
2021/10/06 09:23:17;;;;;;;2.83;1.90;;;;;;;21.68;75.52;97766.97;5011032;28;20210;-63
2021/10/06 09:25:47;;;;;;;2.27;1.70;;;;;;;21.66;75.71;97763.53;5018732;28;20229;-62
2021/10/06 09:28:18;;;;;;;2.23;1.83;;;;;;;21.69;76.09;97775.53;5035251;28;20289;-63
2021/10/06 09:30:45;;;;;;;1.83;1.63;;;;;;;21.62;75.82;97761.66;5034580;28;20229;-63
2021/10/06 09:33:11;;;;;;;1.67;1.57;;;;;;;21.64;76.08;97766.84;5000742;28;20904;-63
2021/10/06 09:35:38;;;;;;;4.10;1.73;;;;;;;21.62;76.07;97774.47;4996091;28;20228;-63
2021/10/06 09:38:04;;;;;;;1.80;1.70;;;;;;;21.66;76.12;97784.00;5011995;28;20234;-64
2021/10/06 09:40:31;;;;;;;1.90;1.70;;;;;;;21.61;76.24;97782.97;5034794;28;20202;-63
2021/10/06 09:43:02;;;;;;;2.27;1.73;;;;;;;21.65;75.97;97789.06;5016293;28;20650;-63
2021/10/06 09:45:38;;;;;;;2.20;1.90;;;;;;;21.65;76.01;97789.06;5009707;28;20237;-63
2021/10/06 09:48:11;;;;;;;1.77;1.67;;;;;;;21.64;76.51;97784.75;5040478;28;20240;-63
2021/10/06 09:50:44;;;;;;;2.47;1.70;;;;;;;21.64;76.11;97779.63;5042751;28;20225;-63
2021/10/06 09:53:19;;;;;;;2.27;1.80;;;;;;;21.64;76.32;97782.19;5010263;28;20701;-63
2021/10/06 09:55:50;;;;;;;4.30;1.77;;;;;;;21.65;76.35;97792.47;5023709;28;20227;-64
2021/10/06 09:58:17;;;;;;;3.93;1.70;;;;;;;21.54;76.21;97775.91;5040628;28;20225;-62
2021/10/06 10:00:45;;;;;;;1.63;1.50;;;;;;;21.54;76.29;97775.03;5004906;28;20230;-64
2021/10/06 10:03:12;;;;;;;2.30;1.70;;;;;;;21.66;76.45;97798.47;5003594;28;20289;-65
2021/10/06 10:05:40;;;;;;;1.83;1.67;;;;;;;21.65;76.33;97797.59;5007548;28;20663;-61
2021/10/06 10:08:08;;;;;;;1.90;1.70;;;;;;;21.68;76.34;97801.94;5008941;28;20293;-61
2021/10/06 10:10:35;;;;;;;2.93;1.70;;;;;;;21.68;76.31;97799.41;5007531;28;20256;-62
2021/10/06 10:13:02;;;;;;;1.50;1.40;;;;;;;21.63;76.44;97783.00;5023500;28;20268;-62
2021/10/06 10:15:29;;;;;;;2.53;1.80;;;;;;;21.52;76.48;97775.00;4994588;28;20685;-64
2021/10/06 10:17:58;;;;;;;1.60;1.50;;;;;;;21.62;76.19;97786.41;5005010;28;20224;-63
2021/10/06 10:20:26;;;;;;;2.17;1.63;;;;;;;21.70;76.44;97807.97;5027494;28;20198;-62
2021/10/06 10:22:55;;;;;;;2.23;1.77;;;;;;;21.31;76.31;97735.03;5031103;23;20268;-70
2021/10/06 10:25:28;;;;;;;2.00;1.80;;;;;;;21.55;76.26;97782.75;4982788;28;20717;-69
2021/10/06 10:27:59;;;;;;;4.67;2.13;;;;;;;21.73;76.52;97805.50;4991860;28;20256;-70
2021/10/06 10:30:27;;;;;;;5.90;2.13;;;;;;;21.64;76.45;97788.19;5010558;28;20198;-70
2021/10/06 10:32:53;;;;;;;4.97;2.00;;;;;;;21.73;75.90;97804.66;5024991;28;20260;-69
2021/10/06 10:35:39;;;;;;;1.87;1.70;;;;;;;21.75;76.32;97803.91;5025504;28;20233;-70
2021/10/06 10:38:16;;;;;;;5.00;2.20;;;;;;;21.75;76.41;97806.47;5017131;28;20249;-70
2021/10/06 10:40:49;;;;;;;5.60;1.97;;;;;;;21.74;76.46;97809.84;5010074;28;20227;-71
2021/10/06 10:43:17;;;;;;;4.43;2.10;;;;;;;21.73;76.35;97811.50;5024033;28;20301;-69
2021/10/06 10:45:59;;;;;;;3.80;2.00;;;;;;;21.62;76.43;97792.38;5008029;28;20232;-70
2021/10/06 10:48:27;;;;;;;2.90;2.03;;;;;;;21.71;76.36;97805.47;5001172;28;20202;-70
2021/10/06 10:50:57;;;;;;;2.13;1.70;;;;;;;21.71;76.53;97802.06;5000237;28;20206;-69
2021/10/06 10:53:51;;;;;;;4.10;1.70;;;;;;;21.70;76.51;97800.28;5005903;28;20664;-70
2021/10/06 10:56:37;;;;;;;4.70;2.03;;;;;;;21.68;76.57;97800.25;5024669;28;20190;-73
2021/10/06 10:59:08;;;;;;;2.40;1.83;;;;;;;21.68;76.47;97800.25;5011133;28;20640;-71
2021/10/06 11:01:48;;;;;;;6.23;2.80;;;;;;;21.38;76.53;97749.78;5022365;28;20225;-70
2021/10/06 11:04:23;;;;;;;3.10;2.30;;;;;;;21.68;76.67;97801.94;4991626;28;20198;-71
2021/10/06 11:06:55;;;;;;;4.07;2.50;;;;;;;21.54;76.69;97788.72;5019884;28;20233;-71
2021/10/06 11:09:31;;;;;;;8.40;2.60;;;;;;;21.66;76.76;97798.47;4990346;28;20439;-70
2021/10/06 11:12:07;;;;;;;4.73;2.93;;;;;;;21.67;76.93;97803.63;5019829;28;20272;-71
2021/10/06 11:14:37;;;;;;;6.57;2.80;;;;;;;21.66;76.86;97799.34;5023764;28;20244;-70
2021/10/06 11:17:11;;;;;;;4.93;2.83;;;;;;;21.64;77.03;97794.97;5028651;28;20229;-71
2021/10/06 11:19:51;;;;;;;6.37;3.17;;;;;;;21.67;76.86;97801.06;5009840;28;20240;-69
2021/10/06 11:22:21;;;;;;;6.87;3.03;;;;;;;21.68;77.00;97799.41;5022767;28;20218;-71
2021/10/06 11:25:14;;;;;;;4.60;3.10;;;;;;;21.68;77.06;97802.78;5024966;28;20292;-71
2021/10/06 11:27:49;;;;;;;10.80;3.83;;;;;;;21.59;76.96;97788.84;5015705;28;20292;-71
2021/10/06 11:30:16;;;;;;;6.60;3.40;;;;;;;21.36;77.13;97744.63;5003166;28;20646;-72
2021/10/06 11:32:47;;;;;;;6.93;3.67;;;;;;;21.47;76.96;97755.22;5003968;28;20260;-71
2021/10/06 11:35:14;;;;;;;7.53;3.63;;;;;;;21.73;77.13;97802.09;5012389;28;20622;-73
2021/10/06 11:37:40;;;;;;;8.30;3.87;;;;;;;21.66;76.85;97783.13;5010638;28;20631;-71